sensor_id;sensor_type;location;lat;lon;timestamp;P1;durP1;ratioP1;P2;durP2;ratioP2
9948;SDS011;5013;51.840;8.276;2022-07-03T00:00:36;2.80;;;1.77;;
9948;SDS011;5013;51.840;8.276;2022-07-03T00:03:02;1.50;;;1.50;;
9948;SDS011;5013;51.840;8.276;2022-07-03T00:05:28;5.40;;;1.90;;
9948;SDS011;5013;51.840;8.276;2022-07-03T00:07:54;3.60;;;2.20;;
9948;SDS011;5013;51.840;8.276;2022-07-03T00:10:20;3.50;;;2.20;;
9948;SDS011;5013;51.840;8.276;2022-07-03T00:12:45;4.53;;;2.50;;
9948;SDS011;5013;51.840;8.276;2022-07-03T00:15:11;2.10;;;2.00;;
9948;SDS011;5013;51.840;8.276;2022-07-03T00:17:37;2.97;;;2.37;;
9948;SDS011;5013;51.840;8.276;2022-07-03T00:20:03;2.10;;;1.93;;
9948;SDS011;5013;51.840;8.276;2022-07-03T00:22:30;2.03;;;1.90;;
9948;SDS011;5013;51.840;8.276;2022-07-03T00:25:01;2.47;;;2.30;;
9948;SDS011;5013;51.840;8.276;2022-07-03T00:27:32;2.33;;;2.17;;
9948;SDS011;5013;51.840;8.276;2022-07-03T00:30:00;2.63;;;2.43;;
9948;SDS011;5013;51.840;8.276;2022-07-03T00:32:28;2.47;;;2.10;;
9948;SDS011;5013;51.840;8.276;2022-07-03T00:34:54;2.30;;;2.20;;
9948;SDS011;5013;51.840;8.276;2022-07-03T00:37:22;4.03;;;2.40;;
9948;SDS011;5013;51.840;8.276;2022-07-03T00:39:48;2.90;;;2.57;;
9948;SDS011;5013;51.840;8.276;2022-07-03T00:42:14;2.63;;;2.43;;
9948;SDS011;5013;51.840;8.276;2022-07-03T00:44:50;6.50;;;2.70;;
9948;SDS011;5013;51.840;8.276;2022-07-03T00:47:18;2.93;;;2.70;;
9948;SDS011;5013;51.840;8.276;2022-07-03T00:49:47;5.53;;;2.40;;
9948;SDS011;5013;51.840;8.276;2022-07-03T00:52:17;3.07;;;2.20;;
9948;SDS011;5013;51.840;8.276;2022-07-03T00:54:54;2.00;;;1.90;;
9948;SDS011;5013;51.840;8.276;2022-07-03T00:57:22;4.13;;;2.27;;
9948;SDS011;5013;51.840;8.276;2022-07-03T00:59:49;2.37;;;2.17;;
9948;SDS011;5013;51.840;8.276;2022-07-03T01:07:41;2.47;;;2.03;;
9948;SDS011;5013;51.840;8.276;2022-07-03T01:18:48;2.40;;;2.10;;
9948;SDS011;5013;51.840;8.276;2022-07-03T01:21:17;2.43;;;2.27;;
9948;SDS011;5013;51.840;8.276;2022-07-03T01:26:31;2.37;;;2.10;;
9948;SDS011;5013;51.840;8.276;2022-07-03T01:29:03;3.23;;;2.03;;
9948;SDS011;5013;51.840;8.276;2022-07-03T01:31:33;2.77;;;2.30;;
9948;SDS011;5013;51.840;8.276;2022-07-03T01:34:03;2.57;;;2.23;;
9948;SDS011;5013;51.840;8.276;2022-07-03T01:36:37;4.67;;;2.13;;
9948;SDS011;5013;51.840;8.276;2022-07-03T01:39:05;2.30;;;2.10;;
9948;SDS011;5013;51.840;8.276;2022-07-03T01:41:34;2.10;;;2.00;;
9948;SDS011;5013;51.840;8.276;2022-07-03T01:44:02;5.77;;;2.30;;
9948;SDS011;5013;51.840;8.276;2022-07-03T01:46:31;2.40;;;2.20;;
9948;SDS011;5013;51.840;8.276;2022-07-03T01:48:57;2.20;;;2.00;;
9948;SDS011;5013;51.840;8.276;2022-07-03T01:51:24;2.50;;;2.40;;
9948;SDS011;5013;51.840;8.276;2022-07-03T01:53:51;2.47;;;2.27;;
9948;SDS011;5013;51.840;8.276;2022-07-03T01:56:18;1.93;;;1.83;;
9948;SDS011;5013;51.840;8.276;2022-07-03T01:58:46;2.10;;;1.90;;
9948;SDS011;5013;51.840;8.276;2022-07-03T02:03:57;2.07;;;1.97;;
9948;SDS011;5013;51.840;8.276;2022-07-03T02:09:06;2.70;;;2.50;;
9948;SDS011;5013;51.840;8.276;2022-07-03T02:11:43;6.00;;;2.63;;
9948;SDS011;5013;51.840;8.276;2022-07-03T02:14:12;5.80;;;2.70;;
9948;SDS011;5013;51.840;8.276;2022-07-03T02:22:21;2.67;;;2.20;;
9948;SDS011;5013;51.840;8.276;2022-07-03T02:24:52;4.30;;;2.60;;
9948;SDS011;5013;51.840;8.276;2022-07-03T02:27:23;4.37;;;2.20;;
9948;SDS011;5013;51.840;8.276;2022-07-03T02:29:54;3.67;;;2.30;;
9948;SDS011;5013;51.840;8.276;2022-07-03T02:32:26;3.33;;;2.13;;
9948;SDS011;5013;51.840;8.276;2022-07-03T02:34:58;7.30;;;2.20;;
9948;SDS011;5013;51.840;8.276;2022-07-03T02:37:30;2.23;;;2.13;;
9948;SDS011;5013;51.840;8.276;2022-07-03T02:40:04;4.00;;;2.27;;
9948;SDS011;5013;51.840;8.276;2022-07-03T02:42:42;2.40;;;2.03;;
9948;SDS011;5013;51.840;8.276;2022-07-03T02:45:15;5.27;;;3.10;;
9948;SDS011;5013;51.840;8.276;2022-07-03T02:47:48;10.90;;;2.27;;
9948;SDS011;5013;51.840;8.276;2022-07-03T02:50:26;2.43;;;2.23;;
9948;SDS011;5013;51.840;8.276;2022-07-03T02:56:00;2.70;;;2.50;;
9948;SDS011;5013;51.840;8.276;2022-07-03T03:01:41;2.80;;;2.63;;
9948;SDS011;5013;51.840;8.276;2022-07-03T03:04:20;2.90;;;2.70;;
9948;SDS011;5013;51.840;8.276;2022-07-03T03:06:55;5.07;;;2.50;;
9948;SDS011;5013;51.840;8.276;2022-07-03T03:09:27;4.07;;;3.10;;
9948;SDS011;5013;51.840;8.276;2022-07-03T03:11:59;2.90;;;2.50;;
9948;SDS011;5013;51.840;8.276;2022-07-03T03:14:27;2.50;;;2.40;;
9948;SDS011;5013;51.840;8.276;2022-07-03T03:17:06;2.70;;;2.50;;
9948;SDS011;5013;51.840;8.276;2022-07-03T03:19:39;4.23;;;2.40;;
9948;SDS011;5013;51.840;8.276;2022-07-03T03:24:34;5.00;;;2.23;;
9948;SDS011;5013;51.840;8.276;2022-07-03T03:27:00;3.60;;;2.50;;
9948;SDS011;5013;51.840;8.276;2022-07-03T03:29:27;2.70;;;2.50;;
9948;SDS011;5013;51.840;8.276;2022-07-03T03:31:53;2.60;;;2.20;;
9948;SDS011;5013;51.840;8.276;2022-07-03T03:34:19;4.83;;;2.50;;
9948;SDS011;5013;51.840;8.276;2022-07-03T03:36:47;3.63;;;2.27;;
9948;SDS011;5013;51.840;8.276;2022-07-03T03:39:13;2.93;;;2.73;;
9948;SDS011;5013;51.840;8.276;2022-07-03T03:41:39;2.67;;;2.47;;
9948;SDS011;5013;51.840;8.276;2022-07-03T03:44:05;4.37;;;2.40;;
9948;SDS011;5013;51.840;8.276;2022-07-03T03:46:31;4.53;;;2.53;;
9948;SDS011;5013;51.840;8.276;2022-07-03T03:48:57;2.43;;;2.23;;
9948;SDS011;5013;51.840;8.276;2022-07-03T03:51:22;2.87;;;2.67;;
9948;SDS011;5013;51.840;8.276;2022-07-03T03:53:48;2.57;;;2.37;;
9948;SDS011;5013;51.840;8.276;2022-07-03T03:56:14;2.93;;;2.73;;
9948;SDS011;5013;51.840;8.276;2022-07-03T03:58:40;6.63;;;2.80;;
9948;SDS011;5013;51.840;8.276;2022-07-03T04:01:07;2.50;;;2.30;;
9948;SDS011;5013;51.840;8.276;2022-07-03T04:03:34;5.57;;;2.60;;
9948;SDS011;5013;51.840;8.276;2022-07-03T04:06:01;3.03;;;2.83;;
9948;SDS011;5013;51.840;8.276;2022-07-03T04:11:50;3.17;;;2.70;;
9948;SDS011;5013;51.840;8.276;2022-07-03T04:14:15;3.20;;;2.90;;
9948;SDS011;5013;51.840;8.276;2022-07-03T04:16:41;2.73;;;2.40;;
9948;SDS011;5013;51.840;8.276;2022-07-03T04:19:07;4.47;;;2.57;;
9948;SDS011;5013;51.840;8.276;2022-07-03T04:21:32;5.50;;;2.80;;
9948;SDS011;5013;51.840;8.276;2022-07-03T04:23:58;4.23;;;2.57;;
9948;SDS011;5013;51.840;8.276;2022-07-03T04:29:46;13.23;;;3.73;;
9948;SDS011;5013;51.840;8.276;2022-07-03T04:32:11;6.40;;;3.10;;
9948;SDS011;5013;51.840;8.276;2022-07-03T04:34:37;3.37;;;3.07;;
9948;SDS011;5013;51.840;8.276;2022-07-03T04:37:03;4.40;;;3.20;;
9948;SDS011;5013;51.840;8.276;2022-07-03T04:39:29;6.73;;;3.37;;
9948;SDS011;5013;51.840;8.276;2022-07-03T04:41:54;3.33;;;3.00;;
9948;SDS011;5013;51.840;8.276;2022-07-03T04:44:20;7.27;;;3.50;;
9948;SDS011;5013;51.840;8.276;2022-07-03T04:46:46;3.40;;;3.10;;
9948;SDS011;5013;51.840;8.276;2022-07-03T04:49:11;5.07;;;2.67;;
9948;SDS011;5013;51.840;8.276;2022-07-03T04:51:37;5.87;;;2.90;;
9948;SDS011;5013;51.840;8.276;2022-07-03T04:54:03;3.03;;;2.30;;
9948;SDS011;5013;51.840;8.276;2022-07-03T04:59:50;2.60;;;2.33;;
9948;SDS011;5013;51.840;8.276;2022-07-03T05:02:16;2.90;;;2.70;;
9948;SDS011;5013;51.840;8.276;2022-07-03T05:08:04;2.50;;;2.30;;
9948;SDS011;5013;51.840;8.276;2022-07-03T05:13:52;3.13;;;2.43;;
9948;SDS011;5013;51.840;8.276;2022-07-03T05:16:18;6.47;;;2.73;;
9948;SDS011;5013;51.840;8.276;2022-07-03T05:18:43;4.90;;;2.73;;
9948;SDS011;5013;51.840;8.276;2022-07-03T05:21:09;4.10;;;2.73;;
9948;SDS011;5013;51.840;8.276;2022-07-03T05:23:35;4.40;;;2.63;;
9948;SDS011;5013;51.840;8.276;2022-07-03T05:26:00;4.27;;;3.40;;
9948;SDS011;5013;51.840;8.276;2022-07-03T05:28:26;5.43;;;2.83;;
9948;SDS011;5013;51.840;8.276;2022-07-03T05:30:52;5.60;;;2.80;;
9948;SDS011;5013;51.840;8.276;2022-07-03T05:33:17;3.60;;;2.53;;
9948;SDS011;5013;51.840;8.276;2022-07-03T05:35:43;3.90;;;2.40;;
9948;SDS011;5013;51.840;8.276;2022-07-03T05:38:09;2.70;;;2.40;;
9948;SDS011;5013;51.840;8.276;2022-07-03T05:40:35;4.37;;;3.00;;
9948;SDS011;5013;51.840;8.276;2022-07-03T05:43:00;5.63;;;2.90;;
9948;SDS011;5013;51.840;8.276;2022-07-03T05:45:26;2.70;;;2.50;;
9948;SDS011;5013;51.840;8.276;2022-07-03T05:47:52;3.67;;;2.67;;
9948;SDS011;5013;51.840;8.276;2022-07-03T05:50:18;6.00;;;2.67;;
9948;SDS011;5013;51.840;8.276;2022-07-03T05:52:44;5.83;;;2.90;;
9948;SDS011;5013;51.840;8.276;2022-07-03T05:55:10;9.30;;;2.70;;
9948;SDS011;5013;51.840;8.276;2022-07-03T05:57:35;6.47;;;3.07;;
9948;SDS011;5013;51.840;8.276;2022-07-03T06:00:01;4.30;;;2.73;;
9948;SDS011;5013;51.840;8.276;2022-07-03T06:02:28;8.60;;;3.37;;
9948;SDS011;5013;51.840;8.276;2022-07-03T06:04:54;8.23;;;3.37;;
9948;SDS011;5013;51.840;8.276;2022-07-03T06:07:20;6.32;;;2.72;;
9948;SDS011;5013;51.840;8.276;2022-07-03T06:09:46;6.07;;;2.55;;
9948;SDS011;5013;51.840;8.276;2022-07-03T06:12:13;5.35;;;3.30;;
9948;SDS011;5013;51.840;8.276;2022-07-03T06:14:39;3.92;;;2.85;;
9948;SDS011;5013;51.840;8.276;2022-07-03T06:17:04;5.15;;;2.70;;
9948;SDS011;5013;51.840;8.276;2022-07-03T06:19:30;6.45;;;3.38;;
9948;SDS011;5013;51.840;8.276;2022-07-03T06:21:56;4.95;;;2.85;;
9948;SDS011;5013;51.840;8.276;2022-07-03T06:24:22;3.78;;;3.08;;
9948;SDS011;5013;51.840;8.276;2022-07-03T06:26:50;5.50;;;3.17;;
9948;SDS011;5013;51.840;8.276;2022-07-03T06:29:16;4.30;;;2.97;;
9948;SDS011;5013;51.840;8.276;2022-07-03T06:31:42;5.05;;;2.83;;
9948;SDS011;5013;51.840;8.276;2022-07-03T06:34:07;7.53;;;2.78;;
9948;SDS011;5013;51.840;8.276;2022-07-03T06:36:33;3.97;;;2.70;;
9948;SDS011;5013;51.840;8.276;2022-07-03T06:38:59;3.25;;;2.90;;
9948;SDS011;5013;51.840;8.276;2022-07-03T06:41:24;4.57;;;2.50;;
9948;SDS011;5013;51.840;8.276;2022-07-03T06:43:50;4.78;;;2.97;;
9948;SDS011;5013;51.840;8.276;2022-07-03T06:46:16;8.30;;;3.30;;
9948;SDS011;5013;51.840;8.276;2022-07-03T06:48:42;6.95;;;3.10;;
9948;SDS011;5013;51.840;8.276;2022-07-03T06:51:07;6.63;;;2.95;;
9948;SDS011;5013;51.840;8.276;2022-07-03T06:53:33;4.93;;;2.70;;
9948;SDS011;5013;51.840;8.276;2022-07-03T06:55:58;5.38;;;2.90;;
9948;SDS011;5013;51.840;8.276;2022-07-03T06:58:24;10.73;;;3.08;;
9948;SDS011;5013;51.840;8.276;2022-07-03T07:00:50;11.27;;;3.10;;
9948;SDS011;5013;51.840;8.276;2022-07-03T07:03:15;5.70;;;2.63;;
9948;SDS011;5013;51.840;8.276;2022-07-03T07:05:41;3.63;;;2.72;;
9948;SDS011;5013;51.840;8.276;2022-07-03T07:08:07;3.05;;;2.75;;
9948;SDS011;5013;51.840;8.276;2022-07-03T07:10:33;7.03;;;2.65;;
9948;SDS011;5013;51.840;8.276;2022-07-03T07:12:58;2.80;;;2.38;;
9948;SDS011;5013;51.840;8.276;2022-07-03T07:15:24;5.32;;;2.28;;
9948;SDS011;5013;51.840;8.276;2022-07-03T07:17:50;7.47;;;2.60;;
9948;SDS011;5013;51.840;8.276;2022-07-03T07:20:15;3.97;;;2.40;;
9948;SDS011;5013;51.840;8.276;2022-07-03T07:22:41;2.53;;;2.30;;
9948;SDS011;5013;51.840;8.276;2022-07-03T07:25:07;2.58;;;2.00;;
9948;SDS011;5013;51.840;8.276;2022-07-03T07:27:33;3.78;;;2.35;;
9948;SDS011;5013;51.840;8.276;2022-07-03T07:29:58;10.88;;;3.10;;
9948;SDS011;5013;51.840;8.276;2022-07-03T07:32:24;5.90;;;2.85;;
9948;SDS011;5013;51.840;8.276;2022-07-03T07:34:50;3.90;;;2.80;;
9948;SDS011;5013;51.840;8.276;2022-07-03T07:37:15;4.82;;;2.50;;
9948;SDS011;5013;51.840;8.276;2022-07-03T07:39:41;3.40;;;2.33;;
9948;SDS011;5013;51.840;8.276;2022-07-03T07:42:07;3.75;;;2.67;;
9948;SDS011;5013;51.840;8.276;2022-07-03T07:44:32;7.53;;;2.35;;
9948;SDS011;5013;51.840;8.276;2022-07-03T07:46:58;5.13;;;2.00;;
9948;SDS011;5013;51.840;8.276;2022-07-03T07:49:24;2.53;;;2.08;;
9948;SDS011;5013;51.840;8.276;2022-07-03T07:51:50;4.18;;;1.75;;
9948;SDS011;5013;51.840;8.276;2022-07-03T07:54:15;3.38;;;1.75;;
9948;SDS011;5013;51.840;8.276;2022-07-03T07:56:42;2.75;;;1.70;;
9948;SDS011;5013;51.840;8.276;2022-07-03T07:59:07;1.55;;;1.45;;
9948;SDS011;5013;51.840;8.276;2022-07-03T08:01:33;1.60;;;1.50;;
9948;SDS011;5013;51.840;8.276;2022-07-03T08:04:17;3.08;;;1.60;;
9948;SDS011;5013;51.840;8.276;2022-07-03T08:07:01;2.47;;;1.25;;
9948;SDS011;5013;51.840;8.276;2022-07-03T08:09:27;2.80;;;1.70;;
9948;SDS011;5013;51.840;8.276;2022-07-03T08:11:53;2.47;;;1.40;;
9948;SDS011;5013;51.840;8.276;2022-07-03T08:14:18;1.45;;;1.35;;
9948;SDS011;5013;51.840;8.276;2022-07-03T08:16:44;1.45;;;1.27;;
9948;SDS011;5013;51.840;8.276;2022-07-03T08:19:11;1.35;;;1.25;;
9948;SDS011;5013;51.840;8.276;2022-07-03T08:21:37;3.58;;;1.33;;
9948;SDS011;5013;51.840;8.276;2022-07-03T08:24:03;1.33;;;1.27;;
9948;SDS011;5013;51.840;8.276;2022-07-03T08:26:28;4.32;;;1.30;;
9948;SDS011;5013;51.840;8.276;2022-07-03T08:28:54;1.35;;;1.25;;
9948;SDS011;5013;51.840;8.276;2022-07-03T08:31:20;1.67;;;1.30;;
9948;SDS011;5013;51.840;8.276;2022-07-03T08:33:46;3.08;;;1.13;;
9948;SDS011;5013;51.840;8.276;2022-07-03T08:36:11;2.28;;;1.30;;
9948;SDS011;5013;51.840;8.276;2022-07-03T08:38:38;2.45;;;1.20;;
9948;SDS011;5013;51.840;8.276;2022-07-03T08:41:03;2.40;;;1.52;;
9948;SDS011;5013;51.840;8.276;2022-07-03T08:43:29;3.10;;;1.40;;
9948;SDS011;5013;51.840;8.276;2022-07-03T08:45:57;4.03;;;1.30;;
9948;SDS011;5013;51.840;8.276;2022-07-03T08:48:25;1.30;;;1.20;;
9948;SDS011;5013;51.840;8.276;2022-07-03T08:50:52;1.95;;;1.40;;
9948;SDS011;5013;51.840;8.276;2022-07-03T08:53:18;1.20;;;1.20;;
9948;SDS011;5013;51.840;8.276;2022-07-03T08:55:45;2.88;;;1.10;;
9948;SDS011;5013;51.840;8.276;2022-07-03T08:58:12;1.23;;;1.13;;
9948;SDS011;5013;51.840;8.276;2022-07-03T09:00:40;3.50;;;1.70;;
9948;SDS011;5013;51.840;8.276;2022-07-03T09:03:09;1.30;;;1.20;;
9948;SDS011;5013;51.840;8.276;2022-07-03T09:05:35;4.20;;;1.35;;
9948;SDS011;5013;51.840;8.276;2022-07-03T09:08:01;2.08;;;1.42;;
9948;SDS011;5013;51.840;8.276;2022-07-03T09:10:30;1.10;;;1.10;;
9948;SDS011;5013;51.840;8.276;2022-07-03T09:12:56;1.67;;;1.50;;
9948;SDS011;5013;51.840;8.276;2022-07-03T09:15:23;1.63;;;1.30;;
9948;SDS011;5013;51.840;8.276;2022-07-03T09:17:55;1.80;;;1.42;;
9948;SDS011;5013;51.840;8.276;2022-07-03T09:20:39;2.58;;;1.45;;
9948;SDS011;5013;51.840;8.276;2022-07-03T09:26:00;2.10;;;1.30;;
9948;SDS011;5013;51.840;8.276;2022-07-03T09:31:21;1.60;;;1.30;;
9948;SDS011;5013;51.840;8.276;2022-07-03T09:33:51;6.47;;;1.45;;
9948;SDS011;5013;51.840;8.276;2022-07-03T09:36:18;1.35;;;1.25;;
9948;SDS011;5013;51.840;8.276;2022-07-03T09:38:47;3.13;;;1.35;;
9948;SDS011;5013;51.840;8.276;2022-07-03T09:41:12;2.63;;;1.60;;
9948;SDS011;5013;51.840;8.276;2022-07-03T09:43:42;2.15;;;1.30;;
9948;SDS011;5013;51.840;8.276;2022-07-03T09:46:09;2.95;;;1.30;;
9948;SDS011;5013;51.840;8.276;2022-07-03T09:48:35;1.58;;;1.40;;
9948;SDS011;5013;51.840;8.276;2022-07-03T09:51:09;1.38;;;1.30;;
9948;SDS011;5013;51.840;8.276;2022-07-03T09:53:50;5.35;;;1.40;;
9948;SDS011;5013;51.840;8.276;2022-07-03T09:56:16;1.58;;;1.48;;
9948;SDS011;5013;51.840;8.276;2022-07-03T10:01:47;2.83;;;1.45;;
9948;SDS011;5013;51.840;8.276;2022-07-03T10:04:13;2.47;;;1.50;;
9948;SDS011;5013;51.840;8.276;2022-07-03T10:09:33;3.60;;;1.30;;
9948;SDS011;5013;51.840;8.276;2022-07-03T10:12:00;5.15;;;1.38;;
9948;SDS011;5013;51.840;8.276;2022-07-03T10:17:50;2.50;;;1.40;;
9948;SDS011;5013;51.840;8.276;2022-07-03T10:20:24;1.42;;;1.08;;
9948;SDS011;5013;51.840;8.276;2022-07-03T10:22:52;3.20;;;1.55;;
9948;SDS011;5013;51.840;8.276;2022-07-03T10:25:18;2.00;;;1.42;;
9948;SDS011;5013;51.840;8.276;2022-07-03T10:27:44;3.33;;;1.50;;
9948;SDS011;5013;51.840;8.276;2022-07-03T10:30:14;2.58;;;1.30;;
9948;SDS011;5013;51.840;8.276;2022-07-03T10:32:45;1.85;;;1.02;;
9948;SDS011;5013;51.840;8.276;2022-07-03T10:35:15;1.10;;;1.00;;
9948;SDS011;5013;51.840;8.276;2022-07-03T10:40:50;2.35;;;1.40;;
9948;SDS011;5013;51.840;8.276;2022-07-03T10:43:31;2.28;;;1.10;;
9948;SDS011;5013;51.840;8.276;2022-07-03T10:46:23;2.72;;;1.70;;
9948;SDS011;5013;51.840;8.276;2022-07-03T10:48:56;1.48;;;1.38;;
9948;SDS011;5013;51.840;8.276;2022-07-03T10:51:22;5.20;;;1.40;;
9948;SDS011;5013;51.840;8.276;2022-07-03T10:53:48;4.40;;;1.42;;
9948;SDS011;5013;51.840;8.276;2022-07-03T10:56:14;1.40;;;1.30;;
9948;SDS011;5013;51.840;8.276;2022-07-03T11:01:25;2.55;;;1.60;;
9948;SDS011;5013;51.840;8.276;2022-07-03T11:03:54;3.92;;;1.50;;
9948;SDS011;5013;51.840;8.276;2022-07-03T11:07:24;1.60;;;1.45;;
9948;SDS011;5013;51.840;8.276;2022-07-03T11:09:21;2.25;;;1.30;;
9948;SDS011;5013;51.840;8.276;2022-07-03T11:11:48;1.42;;;1.33;;
9948;SDS011;5013;51.840;8.276;2022-07-03T11:14:20;1.17;;;1.10;;
9948;SDS011;5013;51.840;8.276;2022-07-03T11:16:46;1.33;;;1.05;;
9948;SDS011;5013;51.840;8.276;2022-07-03T11:19:12;1.40;;;1.20;;
9948;SDS011;5013;51.840;8.276;2022-07-03T11:21:41;3.08;;;1.38;;
9948;SDS011;5013;51.840;8.276;2022-07-03T11:29:54;6.07;;;1.70;;
9948;SDS011;5013;51.840;8.276;2022-07-03T11:38:39;1.42;;;1.30;;
9948;SDS011;5013;51.840;8.276;2022-07-03T11:41:08;1.38;;;1.27;;
9948;SDS011;5013;51.840;8.276;2022-07-03T11:43:34;1.80;;;1.50;;
9948;SDS011;5013;51.840;8.276;2022-07-03T11:46:16;1.55;;;1.48;;
9948;SDS011;5013;51.840;8.276;2022-07-03T11:48:43;1.70;;;1.48;;
9948;SDS011;5013;51.840;8.276;2022-07-03T11:51:09;3.53;;;1.40;;
9948;SDS011;5013;51.840;8.276;2022-07-03T11:53:36;5.20;;;1.30;;
9948;SDS011;5013;51.840;8.276;2022-07-03T11:56:10;2.80;;;1.40;;
9948;SDS011;5013;51.840;8.276;2022-07-03T11:58:47;3.25;;;1.33;;
9948;SDS011;5013;51.840;8.276;2022-07-03T12:03:52;1.80;;;1.70;;
9948;SDS011;5013;51.840;8.276;2022-07-03T12:09:00;8.07;;;1.52;;
9948;SDS011;5013;51.840;8.276;2022-07-03T12:11:25;1.42;;;1.40;;
9948;SDS011;5013;51.840;8.276;2022-07-03T12:13:51;2.05;;;1.30;;
9948;SDS011;5013;51.840;8.276;2022-07-03T12:16:18;4.00;;;1.55;;
9948;SDS011;5013;51.840;8.276;2022-07-03T12:22:05;1.30;;;1.30;;
9948;SDS011;5013;51.840;8.276;2022-07-03T12:24:33;2.50;;;1.50;;
9948;SDS011;5013;51.840;8.276;2022-07-03T12:30:22;3.92;;;1.85;;
9948;SDS011;5013;51.840;8.276;2022-07-03T12:32:52;2.22;;;1.80;;
9948;SDS011;5013;51.840;8.276;2022-07-03T12:35:25;1.48;;;1.38;;
9948;SDS011;5013;51.840;8.276;2022-07-03T12:37:52;3.63;;;1.60;;
9948;SDS011;5013;51.840;8.276;2022-07-03T12:43:40;1.50;;;1.42;;
9948;SDS011;5013;51.840;8.276;2022-07-03T12:49:29;1.70;;;1.60;;
9948;SDS011;5013;51.840;8.276;2022-07-03T12:51:54;4.07;;;2.03;;
9948;SDS011;5013;51.840;8.276;2022-07-03T12:54:28;4.07;;;1.85;;
9948;SDS011;5013;51.840;8.276;2022-07-03T13:00:12;1.58;;;1.55;;
9948;SDS011;5013;51.840;8.276;2022-07-03T13:02:43;1.63;;;1.52;;
9948;SDS011;5013;51.840;8.276;2022-07-03T13:05:17;2.75;;;1.55;;
9948;SDS011;5013;51.840;8.276;2022-07-03T13:07:48;3.90;;;1.60;;
9948;SDS011;5013;51.840;8.276;2022-07-03T13:10:15;2.13;;;1.67;;
9948;SDS011;5013;51.840;8.276;2022-07-03T13:12:45;4.68;;;1.73;;
9948;SDS011;5013;51.840;8.276;2022-07-03T13:15:14;4.68;;;2.05;;
9948;SDS011;5013;51.840;8.276;2022-07-03T13:22:53;11.77;;;1.65;;
9948;SDS011;5013;51.840;8.276;2022-07-03T13:28:41;2.08;;;1.98;;
9948;SDS011;5013;51.840;8.276;2022-07-03T13:31:07;4.03;;;1.90;;
9948;SDS011;5013;51.840;8.276;2022-07-03T13:33:34;6.00;;;1.90;;
9948;SDS011;5013;51.840;8.276;2022-07-03T13:36:00;6.43;;;2.20;;
9948;SDS011;5013;51.840;8.276;2022-07-03T13:38:25;6.30;;;1.80;;
9948;SDS011;5013;51.840;8.276;2022-07-03T13:40:51;4.82;;;1.70;;
9948;SDS011;5013;51.840;8.276;2022-07-03T13:43:17;5.57;;;2.22;;
9948;SDS011;5013;51.840;8.276;2022-07-03T13:45:43;3.10;;;1.63;;
9948;SDS011;5013;51.840;8.276;2022-07-03T13:48:08;3.10;;;1.65;;
9948;SDS011;5013;51.840;8.276;2022-07-03T13:53:56;5.35;;;1.88;;
9948;SDS011;5013;51.840;8.276;2022-07-03T13:56:22;4.28;;;1.80;;
9948;SDS011;5013;51.840;8.276;2022-07-03T13:58:48;1.73;;;1.63;;
9948;SDS011;5013;51.840;8.276;2022-07-03T14:01:14;2.80;;;1.83;;
9948;SDS011;5013;51.840;8.276;2022-07-03T14:03:39;3.63;;;1.70;;
9948;SDS011;5013;51.840;8.276;2022-07-03T14:06:05;3.67;;;1.80;;
9948;SDS011;5013;51.840;8.276;2022-07-03T14:08:31;1.65;;;1.52;;
9948;SDS011;5013;51.840;8.276;2022-07-03T14:10:57;4.25;;;1.75;;
9948;SDS011;5013;51.840;8.276;2022-07-03T14:13:22;1.73;;;1.40;;
9948;SDS011;5013;51.840;8.276;2022-07-03T14:15:48;5.55;;;1.95;;
9948;SDS011;5013;51.840;8.276;2022-07-03T14:18:14;1.98;;;1.63;;
9948;SDS011;5013;51.840;8.276;2022-07-03T14:20:40;2.40;;;1.80;;
9948;SDS011;5013;51.840;8.276;2022-07-03T14:23:05;2.88;;;1.65;;
9948;SDS011;5013;51.840;8.276;2022-07-03T14:25:31;8.10;;;1.85;;
9948;SDS011;5013;51.840;8.276;2022-07-03T14:27:57;8.48;;;1.77;;
9948;SDS011;5013;51.840;8.276;2022-07-03T14:30:41;5.32;;;2.03;;
9948;SDS011;5013;51.840;8.276;2022-07-03T14:36:47;3.63;;;1.90;;
9948;SDS011;5013;51.840;8.276;2022-07-03T14:39:13;5.40;;;1.73;;
9948;SDS011;5013;51.840;8.276;2022-07-03T14:41:39;1.58;;;1.40;;
9948;SDS011;5013;51.840;8.276;2022-07-03T14:44:04;1.92;;;1.77;;
9948;SDS011;5013;51.840;8.276;2022-07-03T14:46:30;2.70;;;1.60;;
9948;SDS011;5013;51.840;8.276;2022-07-03T14:48:56;2.75;;;1.75;;
9948;SDS011;5013;51.840;8.276;2022-07-03T14:51:22;3.22;;;1.40;;
9948;SDS011;5013;51.840;8.276;2022-07-03T14:53:48;2.00;;;1.60;;
9948;SDS011;5013;51.840;8.276;2022-07-03T14:56:17;2.65;;;1.75;;
9948;SDS011;5013;51.840;8.276;2022-07-03T14:58:44;5.20;;;1.80;;
9948;SDS011;5013;51.840;8.276;2022-07-03T15:01:12;4.18;;;1.40;;
9948;SDS011;5013;51.840;8.276;2022-07-03T15:03:43;4.93;;;1.85;;
9948;SDS011;5013;51.840;8.276;2022-07-03T15:06:33;1.70;;;1.60;;
9948;SDS011;5013;51.840;8.276;2022-07-03T15:09:02;8.10;;;1.52;;
9948;SDS011;5013;51.840;8.276;2022-07-03T15:11:42;3.58;;;1.80;;
9948;SDS011;5013;51.840;8.276;2022-07-03T15:14:32;2.30;;;1.55;;
9948;SDS011;5013;51.840;8.276;2022-07-03T15:16:59;6.28;;;1.50;;
9948;SDS011;5013;51.840;8.276;2022-07-03T15:19:25;1.63;;;1.52;;
9948;SDS011;5013;51.840;8.276;2022-07-03T15:21:52;1.40;;;1.30;;
9948;SDS011;5013;51.840;8.276;2022-07-03T15:24:19;1.70;;;1.60;;
9948;SDS011;5013;51.840;8.276;2022-07-03T15:26:50;5.60;;;1.70;;
9948;SDS011;5013;51.840;8.276;2022-07-03T15:29:17;1.58;;;1.20;;
9948;SDS011;5013;51.840;8.276;2022-07-03T15:31:44;1.40;;;1.30;;
9948;SDS011;5013;51.840;8.276;2022-07-03T15:34:11;2.38;;;1.35;;
9948;SDS011;5013;51.840;8.276;2022-07-03T15:36:38;2.08;;;1.88;;
9948;SDS011;5013;51.840;8.276;2022-07-03T15:39:17;7.35;;;1.52;;
9948;SDS011;5013;51.840;8.276;2022-07-03T15:42:17;1.40;;;1.30;;
9948;SDS011;5013;51.840;8.276;2022-07-03T15:50:33;4.40;;;1.60;;
9948;SDS011;5013;51.840;8.276;2022-07-03T15:53:08;4.63;;;1.45;;
9948;SDS011;5013;51.840;8.276;2022-07-03T15:55:43;4.38;;;1.45;;
9948;SDS011;5013;51.840;8.276;2022-07-03T15:58:12;1.17;;;1.17;;
9948;SDS011;5013;51.840;8.276;2022-07-03T16:00:39;4.03;;;1.50;;
9948;SDS011;5013;51.840;8.276;2022-07-03T16:03:10;5.28;;;1.33;;
9948;SDS011;5013;51.840;8.276;2022-07-03T16:05:56;1.85;;;1.50;;
9948;SDS011;5013;51.840;8.276;2022-07-03T16:08:27;2.25;;;1.38;;
9948;SDS011;5013;51.840;8.276;2022-07-03T16:10:54;3.92;;;1.58;;
9948;SDS011;5013;51.840;8.276;2022-07-03T16:16:42;1.40;;;1.30;;
9948;SDS011;5013;51.840;8.276;2022-07-03T16:19:10;2.22;;;1.45;;
9948;SDS011;5013;51.840;8.276;2022-07-03T16:21:37;1.75;;;1.65;;
9948;SDS011;5013;51.840;8.276;2022-07-03T16:24:04;4.03;;;1.52;;
9948;SDS011;5013;51.840;8.276;2022-07-03T16:26:34;2.22;;;1.55;;
9948;SDS011;5013;51.840;8.276;2022-07-03T16:29:01;2.53;;;2.33;;
9948;SDS011;5013;51.840;8.276;2022-07-03T16:31:31;1.65;;;1.45;;
9948;SDS011;5013;51.840;8.276;2022-07-03T16:34:01;1.48;;;1.23;;
9948;SDS011;5013;51.840;8.276;2022-07-03T16:36:36;2.55;;;1.20;;
9948;SDS011;5013;51.840;8.276;2022-07-03T16:39:05;1.27;;;1.10;;
9948;SDS011;5013;51.840;8.276;2022-07-03T16:41:33;1.88;;;1.45;;
9948;SDS011;5013;51.840;8.276;2022-07-03T16:44:02;5.28;;;1.40;;
9948;SDS011;5013;51.840;8.276;2022-07-03T16:46:29;5.03;;;1.60;;
9948;SDS011;5013;51.840;8.276;2022-07-03T16:48:57;4.55;;;1.40;;
9948;SDS011;5013;51.840;8.276;2022-07-03T16:54:48;2.58;;;1.40;;
9948;SDS011;5013;51.840;8.276;2022-07-03T16:57:14;3.00;;;1.50;;
9948;SDS011;5013;51.840;8.276;2022-07-03T16:59:41;1.38;;;1.25;;
9948;SDS011;5013;51.840;8.276;2022-07-03T17:02:12;3.00;;;1.20;;
9948;SDS011;5013;51.840;8.276;2022-07-03T17:04:41;1.77;;;1.25;;
9948;SDS011;5013;51.840;8.276;2022-07-03T17:07:08;3.88;;;1.42;;
9948;SDS011;5013;51.840;8.276;2022-07-03T17:09:35;1.60;;;1.20;;
9948;SDS011;5013;51.840;8.276;2022-07-03T17:12:03;1.75;;;1.25;;
9948;SDS011;5013;51.840;8.276;2022-07-03T17:14:29;1.48;;;1.30;;
9948;SDS011;5013;51.840;8.276;2022-07-03T17:16:57;1.92;;;1.15;;
9948;SDS011;5013;51.840;8.276;2022-07-03T17:19:28;2.10;;;1.50;;
9948;SDS011;5013;51.840;8.276;2022-07-03T17:21:57;1.50;;;1.40;;
9948;SDS011;5013;51.840;8.276;2022-07-03T17:24:22;3.78;;;1.25;;
9948;SDS011;5013;51.840;8.276;2022-07-03T17:26:54;1.40;;;1.30;;
9948;SDS011;5013;51.840;8.276;2022-07-03T17:29:33;1.50;;;1.40;;
9948;SDS011;5013;51.840;8.276;2022-07-03T17:32:10;3.90;;;1.33;;
9948;SDS011;5013;51.840;8.276;2022-07-03T17:34:40;2.10;;;1.50;;
9948;SDS011;5013;51.840;8.276;2022-07-03T17:37:09;1.60;;;1.17;;